sensor_id;sensor_type;location;lat;lon;timestamp;temperature;humidity
21918;DHT22;11123;49.882;8.662;2022-07-03T00:01:42;20.20;1.00
21918;DHT22;11123;49.882;8.662;2022-07-03T00:04:10;20.10;1.00
21918;DHT22;11123;49.882;8.662;2022-07-03T00:06:38;20.10;1.00
21918;DHT22;11123;49.882;8.662;2022-07-03T00:09:07;20.10;1.00
21918;DHT22;11123;49.882;8.662;2022-07-03T00:11:35;20.00;1.00
21918;DHT22;11123;49.882;8.662;2022-07-03T00:14:03;19.90;1.00
21918;DHT22;11123;49.882;8.662;2022-07-03T00:16:33;19.90;1.00
21918;DHT22;11123;49.882;8.662;2022-07-03T00:19:02;19.90;2.10
21918;DHT22;11123;49.882;8.662;2022-07-03T00:21:34;19.80;1.90
21918;DHT22;11123;49.882;8.662;2022-07-03T00:24:04;19.80;3.40
21918;DHT22;11123;49.882;8.662;2022-07-03T00:26:37;19.70;7.60
21918;DHT22;11123;49.882;8.662;2022-07-03T00:29:07;19.70;10.40
21918;DHT22;11123;49.882;8.662;2022-07-03T00:31:38;19.70;7.10
21918;DHT22;11123;49.882;8.662;2022-07-03T00:34:08;19.70;6.40
21918;DHT22;11123;49.882;8.662;2022-07-03T00:36:37;19.60;7.10
21918;DHT22;11123;49.882;8.662;2022-07-03T00:39:06;19.60;6.30
21918;DHT22;11123;49.882;8.662;2022-07-03T00:41:35;19.70;4.90
21918;DHT22;11123;49.882;8.662;2022-07-03T00:44:04;19.70;4.20
21918;DHT22;11123;49.882;8.662;2022-07-03T00:46:32;19.70;1.70
21918;DHT22;11123;49.882;8.662;2022-07-03T00:49:06;19.60;3.70
21918;DHT22;11123;49.882;8.662;2022-07-03T00:51:38;19.60;4.50
21918;DHT22;11123;49.882;8.662;2022-07-03T00:54:08;19.60;7.20
21918;DHT22;11123;49.882;8.662;2022-07-03T00:56:39;19.60;6.70
21918;DHT22;11123;49.882;8.662;2022-07-03T00:59:09;19.50;8.50
21918;DHT22;11123;49.882;8.662;2022-07-03T01:01:38;19.50;11.30
21918;DHT22;11123;49.882;8.662;2022-07-03T01:04:21;19.50;6.40
21918;DHT22;11123;49.882;8.662;2022-07-03T01:06:52;19.50;5.40
21918;DHT22;11123;49.882;8.662;2022-07-03T01:09:31;19.50;6.60
21918;DHT22;11123;49.882;8.662;2022-07-03T01:12:06;19.40;12.40
21918;DHT22;11123;49.882;8.662;2022-07-03T01:14:44;19.40;16.40
21918;DHT22;11123;49.882;8.662;2022-07-03T01:17:20;19.30;21.10
21918;DHT22;11123;49.882;8.662;2022-07-03T01:19:58;19.20;21.70
21918;DHT22;11123;49.882;8.662;2022-07-03T01:22:30;19.20;22.60
21918;DHT22;11123;49.882;8.662;2022-07-03T01:25:23;19.10;28.60
21918;DHT22;11123;49.882;8.662;2022-07-03T01:28:03;19.10;28.20
21918;DHT22;11123;49.882;8.662;2022-07-03T01:30:37;19.10;26.70
21918;DHT22;11123;49.882;8.662;2022-07-03T01:33:08;19.10;32.70
21918;DHT22;11123;49.882;8.662;2022-07-03T01:35:46;19.10;36.30
21918;DHT22;11123;49.882;8.662;2022-07-03T01:38:20;19.00;40.30
21918;DHT22;11123;49.882;8.662;2022-07-03T01:40:51;19.00;39.40
21918;DHT22;11123;49.882;8.662;2022-07-03T01:43:27;19.00;37.70
21918;DHT22;11123;49.882;8.662;2022-07-03T01:45:57;19.00;33.60
21918;DHT22;11123;49.882;8.662;2022-07-03T01:48:41;19.00;30.90
21918;DHT22;11123;49.882;8.662;2022-07-03T01:51:25;19.00;37.70
21918;DHT22;11123;49.882;8.662;2022-07-03T01:53:54;18.90;35.30
21918;DHT22;11123;49.882;8.662;2022-07-03T01:56:23;18.90;41.40
21918;DHT22;11123;49.882;8.662;2022-07-03T01:58:52;18.90;39.80
21918;DHT22;11123;49.882;8.662;2022-07-03T02:01:25;18.80;48.00
21918;DHT22;11123;49.882;8.662;2022-07-03T02:04:02;18.80;46.10
21918;DHT22;11123;49.882;8.662;2022-07-03T02:06:39;18.70;47.50
21918;DHT22;11123;49.882;8.662;2022-07-03T02:09:09;18.70;46.30
21918;DHT22;11123;49.882;8.662;2022-07-03T02:11:54;18.80;38.30
21918;DHT22;11123;49.882;8.662;2022-07-03T02:14:28;18.80;36.20
21918;DHT22;11123;49.882;8.662;2022-07-03T02:17:04;18.80;34.50
21918;DHT22;11123;49.882;8.662;2022-07-03T02:19:41;18.80;30.50
21918;DHT22;11123;49.882;8.662;2022-07-03T02:22:12;18.80;30.40
21918;DHT22;11123;49.882;8.662;2022-07-03T02:24:43;18.80;29.40
21918;DHT22;11123;49.882;8.662;2022-07-03T02:27:16;18.70;31.90
21918;DHT22;11123;49.882;8.662;2022-07-03T02:29:52;18.70;35.40
21918;DHT22;11123;49.882;8.662;2022-07-03T02:32:23;18.70;39.00
21918;DHT22;11123;49.882;8.662;2022-07-03T02:34:58;18.60;35.80
21918;DHT22;11123;49.882;8.662;2022-07-03T02:37:32;18.60;34.50
21918;DHT22;11123;49.882;8.662;2022-07-03T02:40:07;18.60;38.90
21918;DHT22;11123;49.882;8.662;2022-07-03T02:42:42;18.60;36.10
21918;DHT22;11123;49.882;8.662;2022-07-03T02:45:14;18.60;33.70
21918;DHT22;11123;49.882;8.662;2022-07-03T02:47:47;18.60;29.40
21918;DHT22;11123;49.882;8.662;2022-07-03T02:50:20;18.50;38.70
21918;DHT22;11123;49.882;8.662;2022-07-03T02:52:56;18.50;39.00
21918;DHT22;11123;49.882;8.662;2022-07-03T02:55:40;18.50;42.80
21918;DHT22;11123;49.882;8.662;2022-07-03T02:58:27;18.40;47.20
21918;DHT22;11123;49.882;8.662;2022-07-03T03:01:03;18.40;55.00
21918;DHT22;11123;49.882;8.662;2022-07-03T03:04:05;18.30;55.20
21918;DHT22;11123;49.882;8.662;2022-07-03T03:06:37;18.40;50.90
21918;DHT22;11123;49.882;8.662;2022-07-03T03:09:14;18.30;53.70
21918;DHT22;11123;49.882;8.662;2022-07-03T03:11:44;18.30;55.50
21918;DHT22;11123;49.882;8.662;2022-07-03T03:14:18;18.20;65.50
21918;DHT22;11123;49.882;8.662;2022-07-03T03:16:53;18.10;66.30
21918;DHT22;11123;49.882;8.662;2022-07-03T03:19:22;18.10;66.40
21918;DHT22;11123;49.882;8.662;2022-07-03T03:21:57;18.10;65.60
21918;DHT22;11123;49.882;8.662;2022-07-03T03:24:27;18.00;75.00
21918;DHT22;11123;49.882;8.662;2022-07-03T03:26:57;17.90;76.50
21918;DHT22;11123;49.882;8.662;2022-07-03T03:29:26;17.80;78.30
21918;DHT22;11123;49.882;8.662;2022-07-03T03:31:57;17.80;89.80
21918;DHT22;11123;49.882;8.662;2022-07-03T03:34:31;17.70;93.20
21918;DHT22;11123;49.882;8.662;2022-07-03T03:37:00;17.70;90.20
21918;DHT22;11123;49.882;8.662;2022-07-03T03:40:04;17.70;92.40
21918;DHT22;11123;49.882;8.662;2022-07-03T03:43:04;17.70;93.90
21918;DHT22;11123;49.882;8.662;2022-07-03T03:45:32;17.70;94.50
21918;DHT22;11123;49.882;8.662;2022-07-03T03:48:02;17.70;94.50
21918;DHT22;11123;49.882;8.662;2022-07-03T03:50:30;17.70;95.80
21918;DHT22;11123;49.882;8.662;2022-07-03T03:52:59;17.70;97.40
21918;DHT22;11123;49.882;8.662;2022-07-03T03:55:27;17.70;97.30
21918;DHT22;11123;49.882;8.662;2022-07-03T03:57:56;17.70;95.40
21918;DHT22;11123;49.882;8.662;2022-07-03T04:00:24;17.70;97.40
21918;DHT22;11123;49.882;8.662;2022-07-03T04:02:52;17.70;97.60
21918;DHT22;11123;49.882;8.662;2022-07-03T04:05:22;17.70;99.90
21918;DHT22;11123;49.882;8.662;2022-07-03T04:07:50;17.70;99.90
21918;DHT22;11123;49.882;8.662;2022-07-03T04:10:18;17.70;99.20
21918;DHT22;11123;49.882;8.662;2022-07-03T04:12:46;17.70;99.90
21918;DHT22;11123;49.882;8.662;2022-07-03T04:15:15;17.70;99.90
21918;DHT22;11123;49.882;8.662;2022-07-03T04:17:43;17.70;99.90
21918;DHT22;11123;49.882;8.662;2022-07-03T04:20:12;17.70;99.90
21918;DHT22;11123;49.882;8.662;2022-07-03T04:22:41;17.70;99.90
21918;DHT22;11123;49.882;8.662;2022-07-03T04:25:09;17.70;99.90
21918;DHT22;11123;49.882;8.662;2022-07-03T04:27:38;17.70;99.90
21918;DHT22;11123;49.882;8.662;2022-07-03T04:30:26;17.70;99.90
21918;DHT22;11123;49.882;8.662;2022-07-03T04:32:55;17.70;99.90
21918;DHT22;11123;49.882;8.662;2022-07-03T04:35:23;17.70;99.90
21918;DHT22;11123;49.882;8.662;2022-07-03T04:37:53;17.60;99.90
21918;DHT22;11123;49.882;8.662;2022-07-03T04:40:22;17.70;99.90
21918;DHT22;11123;49.882;8.662;2022-07-03T04:42:50;17.70;99.90
21918;DHT22;11123;49.882;8.662;2022-07-03T04:45:18;17.80;99.90
21918;DHT22;11123;49.882;8.662;2022-07-03T04:47:46;17.90;99.90
21918;DHT22;11123;49.882;8.662;2022-07-03T04:50:15;18.00;99.90
21918;DHT22;11123;49.882;8.662;2022-07-03T04:52:43;18.10;99.90
21918;DHT22;11123;49.882;8.662;2022-07-03T04:55:12;18.20;99.70
21918;DHT22;11123;49.882;8.662;2022-07-03T04:57:41;18.50;81.70
21918;DHT22;11123;49.882;8.662;2022-07-03T05:00:10;18.50;79.00
21918;DHT22;11123;49.882;8.662;2022-07-03T05:02:38;18.70;72.20
21918;DHT22;11123;49.882;8.662;2022-07-03T05:05:07;18.80;66.30
21918;DHT22;11123;49.882;8.662;2022-07-03T05:07:35;19.00;56.30
21918;DHT22;11123;49.882;8.662;2022-07-03T05:10:03;19.00;51.80
21918;DHT22;11123;49.882;8.662;2022-07-03T05:12:33;19.20;48.50
21918;DHT22;11123;49.882;8.662;2022-07-03T05:15:08;19.20;46.20
21918;DHT22;11123;49.882;8.662;2022-07-03T05:17:36;19.30;42.60
21918;DHT22;11123;49.882;8.662;2022-07-03T05:20:06;19.30;42.20
21918;DHT22;11123;49.882;8.662;2022-07-03T05:22:56;19.40;33.50
21918;DHT22;11123;49.882;8.662;2022-07-03T05:25:25;19.50;30.40
21918;DHT22;11123;49.882;8.662;2022-07-03T05:27:55;19.40;35.60
21918;DHT22;11123;49.882;8.662;2022-07-03T05:30:25;19.40;37.40
21918;DHT22;11123;49.882;8.662;2022-07-03T05:32:54;19.40;39.10
21918;DHT22;11123;49.882;8.662;2022-07-03T05:35:22;19.50;36.60
21918;DHT22;11123;49.882;8.662;2022-07-03T05:37:50;19.60;36.60
21918;DHT22;11123;49.882;8.662;2022-07-03T05:40:19;19.60;36.40
21918;DHT22;11123;49.882;8.662;2022-07-03T05:42:47;19.60;35.90
21918;DHT22;11123;49.882;8.662;2022-07-03T05:45:17;19.80;28.60
21918;DHT22;11123;49.882;8.662;2022-07-03T05:47:45;19.90;26.30
21918;DHT22;11123;49.882;8.662;2022-07-03T05:50:14;19.90;28.00
21918;DHT22;11123;49.882;8.662;2022-07-03T05:52:44;20.00;27.10
21918;DHT22;11123;49.882;8.662;2022-07-03T05:55:14;20.10;21.00
21918;DHT22;11123;49.882;8.662;2022-07-03T05:57:43;20.20;17.20
21918;DHT22;11123;49.882;8.662;2022-07-03T06:00:12;20.30;20.20
21918;DHT22;11123;49.882;8.662;2022-07-03T06:02:41;20.30;19.30
21918;DHT22;11123;49.882;8.662;2022-07-03T06:05:10;20.20;22.30
21918;DHT22;11123;49.882;8.662;2022-07-03T06:07:38;20.30;21.70
21918;DHT22;11123;49.882;8.662;2022-07-03T06:10:07;20.30;18.60
21918;DHT22;11123;49.882;8.662;2022-07-03T06:12:35;20.40;16.80
21918;DHT22;11123;49.882;8.662;2022-07-03T06:15:04;20.50;14.20
21918;DHT22;11123;49.882;8.662;2022-07-03T06:17:34;20.50;16.80
21918;DHT22;11123;49.882;8.662;2022-07-03T06:20:06;20.60;18.50
21918;DHT22;11123;49.882;8.662;2022-07-03T06:22:34;20.70;17.10
21918;DHT22;11123;49.882;8.662;2022-07-03T06:25:03;20.70;17.10
21918;DHT22;11123;49.882;8.662;2022-07-03T06:27:32;20.90;8.90
21918;DHT22;11123;49.882;8.662;2022-07-03T06:30:00;21.10;6.90
21918;DHT22;11123;49.882;8.662;2022-07-03T06:32:29;21.10;7.50
21918;DHT22;11123;49.882;8.662;2022-07-03T06:38:05;21.20;3.50
21918;DHT22;11123;49.882;8.662;2022-07-03T06:40:33;21.30;3.30
21918;DHT22;11123;49.882;8.662;2022-07-03T06:43:02;21.50;1.00
21918;DHT22;11123;49.882;8.662;2022-07-03T06:45:30;21.70;1.00
21918;DHT22;11123;49.882;8.662;2022-07-03T06:47:59;21.70;1.00
21918;DHT22;11123;49.882;8.662;2022-07-03T06:50:27;21.80;1.00
21918;DHT22;11123;49.882;8.662;2022-07-03T06:52:55;21.80;1.00
21918;DHT22;11123;49.882;8.662;2022-07-03T06:55:25;21.90;1.00
21918;DHT22;11123;49.882;8.662;2022-07-03T06:57:54;22.10;1.00
21918;DHT22;11123;49.882;8.662;2022-07-03T07:00:22;22.20;1.00
21918;DHT22;11123;49.882;8.662;2022-07-03T07:02:50;22.20;1.00
21918;DHT22;11123;49.882;8.662;2022-07-03T07:05:19;22.20;1.00
21918;DHT22;11123;49.882;8.662;2022-07-03T07:07:47;22.40;1.00
21918;DHT22;11123;49.882;8.662;2022-07-03T07:10:16;22.40;1.00
21918;DHT22;11123;49.882;8.662;2022-07-03T07:12:45;22.50;1.00
21918;DHT22;11123;49.882;8.662;2022-07-03T07:15:14;22.60;1.00
21918;DHT22;11123;49.882;8.662;2022-07-03T07:17:42;22.60;1.00
21918;DHT22;11123;49.882;8.662;2022-07-03T07:20:11;22.70;1.00
21918;DHT22;11123;49.882;8.662;2022-07-03T07:22:39;22.80;1.00
21918;DHT22;11123;49.882;8.662;2022-07-03T07:25:07;22.80;1.00
21918;DHT22;11123;49.882;8.662;2022-07-03T07:27:36;22.90;1.00
21918;DHT22;11123;49.882;8.662;2022-07-03T07:30:07;23.00;1.00
21918;DHT22;11123;49.882;8.662;2022-07-03T07:32:45;22.90;1.00
21918;DHT22;11123;49.882;8.662;2022-07-03T07:35:21;22.90;1.00
21918;DHT22;11123;49.882;8.662;2022-07-03T07:37:49;23.00;1.00
21918;DHT22;11123;49.882;8.662;2022-07-03T07:40:17;23.00;1.00
21918;DHT22;11123;49.882;8.662;2022-07-03T07:42:46;23.00;1.00
21918;DHT22;11123;49.882;8.662;2022-07-03T07:45:15;23.00;1.00
21918;DHT22;11123;49.882;8.662;2022-07-03T07:47:44;23.00;1.00
21918;DHT22;11123;49.882;8.662;2022-07-03T07:50:12;22.90;1.00
21918;DHT22;11123;49.882;8.662;2022-07-03T07:52:41;23.00;1.00
21918;DHT22;11123;49.882;8.662;2022-07-03T07:55:09;23.10;1.00
21918;DHT22;11123;49.882;8.662;2022-07-03T07:57:39;22.90;1.00
21918;DHT22;11123;49.882;8.662;2022-07-03T08:00:10;23.10;1.00
21918;DHT22;11123;49.882;8.662;2022-07-03T08:02:41;23.20;1.00
21918;DHT22;11123;49.882;8.662;2022-07-03T08:05:27;23.20;1.00
21918;DHT22;11123;49.882;8.662;2022-07-03T08:08:07;23.30;1.00
21918;DHT22;11123;49.882;8.662;2022-07-03T08:10:39;23.40;1.00
21918;DHT22;11123;49.882;8.662;2022-07-03T08:13:08;23.40;1.00
21918;DHT22;11123;49.882;8.662;2022-07-03T08:15:38;23.40;1.00
21918;DHT22;11123;49.882;8.662;2022-07-03T08:18:08;23.40;1.00
21918;DHT22;11123;49.882;8.662;2022-07-03T08:20:37;23.60;1.00
21918;DHT22;11123;49.882;8.662;2022-07-03T08:23:05;23.70;1.00
21918;DHT22;11123;49.882;8.662;2022-07-03T08:25:33;23.80;1.00
21918;DHT22;11123;49.882;8.662;2022-07-03T08:28:02;23.90;1.00
21918;DHT22;11123;49.882;8.662;2022-07-03T08:30:30;23.90;1.00
21918;DHT22;11123;49.882;8.662;2022-07-03T08:32:59;24.00;1.00
21918;DHT22;11123;49.882;8.662;2022-07-03T08:35:29;24.00;1.00
21918;DHT22;11123;49.882;8.662;2022-07-03T08:38:33;24.10;1.00
21918;DHT22;11123;49.882;8.662;2022-07-03T08:41:26;24.10;1.00
21918;DHT22;11123;49.882;8.662;2022-07-03T08:44:05;24.30;1.00
21918;DHT22;11123;49.882;8.662;2022-07-03T08:46:36;24.30;1.00
21918;DHT22;11123;49.882;8.662;2022-07-03T08:49:06;24.40;1.00
21918;DHT22;11123;49.882;8.662;2022-07-03T08:51:36;24.50;1.00
21918;DHT22;11123;49.882;8.662;2022-07-03T08:54:05;24.60;1.00
21918;DHT22;11123;49.882;8.662;2022-07-03T08:56:35;24.50;1.00
21918;DHT22;11123;49.882;8.662;2022-07-03T08:59:05;24.70;1.00
21918;DHT22;11123;49.882;8.662;2022-07-03T09:01:34;24.80;1.00
21918;DHT22;11123;49.882;8.662;2022-07-03T09:07:34;24.90;1.00
21918;DHT22;11123;49.882;8.662;2022-07-03T09:10:04;24.90;1.00
21918;DHT22;11123;49.882;8.662;2022-07-03T09:12:33;25.00;1.00
21918;DHT22;11123;49.882;8.662;2022-07-03T09:15:04;24.90;1.00
21918;DHT22;11123;49.882;8.662;2022-07-03T09:17:33;25.00;1.00
21918;DHT22;11123;49.882;8.662;2022-07-03T09:20:04;25.10;1.00
21918;DHT22;11123;49.882;8.662;2022-07-03T09:22:36;25.10;1.00
21918;DHT22;11123;49.882;8.662;2022-07-03T09:25:06;25.10;1.00
21918;DHT22;11123;49.882;8.662;2022-07-03T09:27:36;25.20;1.00
21918;DHT22;11123;49.882;8.662;2022-07-03T09:30:08;25.40;1.00
21918;DHT22;11123;49.882;8.662;2022-07-03T09:32:45;25.60;1.00
21918;DHT22;11123;49.882;8.662;2022-07-03T09:35:16;25.60;1.00
21918;DHT22;11123;49.882;8.662;2022-07-03T09:37:55;25.70;1.00
21918;DHT22;11123;49.882;8.662;2022-07-03T09:40:25;25.70;1.00
21918;DHT22;11123;49.882;8.662;2022-07-03T09:42:59;25.80;1.00
21918;DHT22;11123;49.882;8.662;2022-07-03T09:45:48;25.80;1.00
21918;DHT22;11123;49.882;8.662;2022-07-03T09:48:22;25.70;1.00
21918;DHT22;11123;49.882;8.662;2022-07-03T09:51:24;25.80;1.00
21918;DHT22;11123;49.882;8.662;2022-07-03T09:53:56;26.00;1.00
21918;DHT22;11123;49.882;8.662;2022-07-03T09:56:27;26.10;1.00
21918;DHT22;11123;49.882;8.662;2022-07-03T09:59:00;26.20;1.00
21918;DHT22;11123;49.882;8.662;2022-07-03T10:01:29;26.10;1.00
21918;DHT22;11123;49.882;8.662;2022-07-03T10:04:14;25.90;1.00
21918;DHT22;11123;49.882;8.662;2022-07-03T10:06:59;25.90;1.00
21918;DHT22;11123;49.882;8.662;2022-07-03T10:09:30;26.10;1.00
21918;DHT22;11123;49.882;8.662;2022-07-03T10:12:00;25.90;1.00
21918;DHT22;11123;49.882;8.662;2022-07-03T10:14:30;26.00;1.00
21918;DHT22;11123;49.882;8.662;2022-07-03T10:16:59;26.10;1.00
21918;DHT22;11123;49.882;8.662;2022-07-03T10:19:29;26.20;1.00
21918;DHT22;11123;49.882;8.662;2022-07-03T10:22:01;26.40;1.00
21918;DHT22;11123;49.882;8.662;2022-07-03T10:24:31;26.50;1.00
21918;DHT22;11123;49.882;8.662;2022-07-03T10:26:59;26.70;1.00
21918;DHT22;11123;49.882;8.662;2022-07-03T10:29:28;26.90;1.00
21918;DHT22;11123;49.882;8.662;2022-07-03T10:31:56;26.90;99.90
21918;DHT22;11123;49.882;8.662;2022-07-03T10:34:27;27.00;1.00
21918;DHT22;11123;49.882;8.662;2022-07-03T10:36:58;27.00;1.00
21918;DHT22;11123;49.882;8.662;2022-07-03T10:39:35;27.10;1.00
21918;DHT22;11123;49.882;8.662;2022-07-03T10:42:05;27.20;99.90
21918;DHT22;11123;49.882;8.662;2022-07-03T10:45:05;26.90;99.90
21918;DHT22;11123;49.882;8.662;2022-07-03T10:47:38;27.00;99.90
21918;DHT22;11123;49.882;8.662;2022-07-03T10:50:09;27.20;99.90
21918;DHT22;11123;49.882;8.662;2022-07-03T10:52:39;27.40;99.90
21918;DHT22;11123;49.882;8.662;2022-07-03T10:55:09;27.70;99.90
21918;DHT22;11123;49.882;8.662;2022-07-03T10:57:40;27.70;99.90
21918;DHT22;11123;49.882;8.662;2022-07-03T11:00:18;27.50;99.90
21918;DHT22;11123;49.882;8.662;2022-07-03T11:03:03;27.50;99.90
21918;DHT22;11123;49.882;8.662;2022-07-03T11:05:56;27.70;99.90
21918;DHT22;11123;49.882;8.662;2022-07-03T11:08:27;27.40;99.90
21918;DHT22;11123;49.882;8.662;2022-07-03T11:10:56;27.60;99.90
21918;DHT22;11123;49.882;8.662;2022-07-03T11:16:46;27.80;99.90
21918;DHT22;11123;49.882;8.662;2022-07-03T11:19:14;27.80;99.90
21918;DHT22;11123;49.882;8.662;2022-07-03T11:21:49;27.80;99.90
21918;DHT22;11123;49.882;8.662;2022-07-03T11:24:39;28.20;99.90
21918;DHT22;11123;49.882;8.662;2022-07-03T11:27:14;28.30;99.90
21918;DHT22;11123;49.882;8.662;2022-07-03T11:29:49;28.40;99.90
21918;DHT22;11123;49.882;8.662;2022-07-03T11:32:45;28.50;99.90
21918;DHT22;11123;49.882;8.662;2022-07-03T11:35:53;28.50;99.90
21918;DHT22;11123;49.882;8.662;2022-07-03T11:38:27;28.50;99.90
21918;DHT22;11123;49.882;8.662;2022-07-03T11:40:58;28.90;99.90
21918;DHT22;11123;49.882;8.662;2022-07-03T11:43:28;29.40;99.90
21918;DHT22;11123;49.882;8.662;2022-07-03T11:45:56;30.00;93.30
21918;DHT22;11123;49.882;8.662;2022-07-03T11:48:26;30.20;65.00
21918;DHT22;11123;49.882;8.662;2022-07-03T11:50:59;30.20;48.20
21918;DHT22;11123;49.882;8.662;2022-07-03T11:53:30;30.20;26.00
21918;DHT22;11123;49.882;8.662;2022-07-03T11:56:00;30.20;28.30
21918;DHT22;11123;49.882;8.662;2022-07-03T11:58:44;30.10;18.20
21918;DHT22;11123;49.882;8.662;2022-07-03T12:01:29;30.00;1.00
21918;DHT22;11123;49.882;8.662;2022-07-03T12:04:06;29.40;1.00
21918;DHT22;11123;49.882;8.662;2022-07-03T12:06:37;29.00;1.00
21918;DHT22;11123;49.882;8.662;2022-07-03T12:09:14;29.00;1.00
21918;DHT22;11123;49.882;8.662;2022-07-03T12:11:55;28.80;1.00
21918;DHT22;11123;49.882;8.662;2022-07-03T12:14:41;29.20;1.00
21918;DHT22;11123;49.882;8.662;2022-07-03T12:17:12;29.30;1.00
21918;DHT22;11123;49.882;8.662;2022-07-03T12:19:45;29.20;1.00
21918;DHT22;11123;49.882;8.662;2022-07-03T12:22:22;30.00;1.00
21918;DHT22;11123;49.882;8.662;2022-07-03T12:25:00;30.10;1.00
21918;DHT22;11123;49.882;8.662;2022-07-03T12:27:29;29.70;1.00
21918;DHT22;11123;49.882;8.662;2022-07-03T12:29:59;29.20;1.00
21918;DHT22;11123;49.882;8.662;2022-07-03T12:32:29;29.40;1.00
21918;DHT22;11123;49.882;8.662;2022-07-03T12:34:58;29.10;1.00
21918;DHT22;11123;49.882;8.662;2022-07-03T12:37:35;29.30;1.00
21918;DHT22;11123;49.882;8.662;2022-07-03T12:40:06;29.40;1.00
21918;DHT22;11123;49.882;8.662;2022-07-03T12:42:43;29.80;1.00
21918;DHT22;11123;49.882;8.662;2022-07-03T12:45:15;29.70;1.00
21918;DHT22;11123;49.882;8.662;2022-07-03T12:47:45;30.00;1.00
21918;DHT22;11123;49.882;8.662;2022-07-03T12:50:13;30.70;1.00
21918;DHT22;11123;49.882;8.662;2022-07-03T12:52:51;30.90;1.00
21918;DHT22;11123;49.882;8.662;2022-07-03T12:55:24;30.30;1.00
21918;DHT22;11123;49.882;8.662;2022-07-03T12:58:12;30.70;1.00
21918;DHT22;11123;49.882;8.662;2022-07-03T13:01:01;31.10;1.00
21918;DHT22;11123;49.882;8.662;2022-07-03T13:03:30;30.90;1.00
21918;DHT22;11123;49.882;8.662;2022-07-03T13:06:15;31.00;1.00
21918;DHT22;11123;49.882;8.662;2022-07-03T13:08:50;30.90;1.00
21918;DHT22;11123;49.882;8.662;2022-07-03T13:11:27;31.10;1.00
21918;DHT22;11123;49.882;8.662;2022-07-03T13:14:05;31.30;1.00
21918;DHT22;11123;49.882;8.662;2022-07-03T13:16:40;31.50;1.00
21918;DHT22;11123;49.882;8.662;2022-07-03T13:19:11;31.50;1.00
21918;DHT22;11123;49.882;8.662;2022-07-03T13:21:40;31.30;1.00
21918;DHT22;11123;49.882;8.662;2022-07-03T13:24:11;31.30;1.00
21918;DHT22;11123;49.882;8.662;2022-07-03T13:26:40;31.30;1.00
21918;DHT22;11123;49.882;8.662;2022-07-03T13:29:09;31.20;1.00
21918;DHT22;11123;49.882;8.662;2022-07-03T13:31:38;31.30;1.00
21918;DHT22;11123;49.882;8.662;2022-07-03T13:34:07;31.10;1.00
21918;DHT22;11123;49.882;8.662;2022-07-03T13:36:35;31.10;1.00
21918;DHT22;11123;49.882;8.662;2022-07-03T13:39:04;30.70;1.00
21918;DHT22;11123;49.882;8.662;2022-07-03T13:41:36;30.90;1.00
21918;DHT22;11123;49.882;8.662;2022-07-03T13:44:04;31.20;1.00
21918;DHT22;11123;49.882;8.662;2022-07-03T13:46:33;31.30;1.00
21918;DHT22;11123;49.882;8.662;2022-07-03T13:49:03;31.30;1.00
21918;DHT22;11123;49.882;8.662;2022-07-03T13:51:31;31.00;1.00
21918;DHT22;11123;49.882;8.662;2022-07-03T13:54:01;31.20;1.00
21918;DHT22;11123;49.882;8.662;2022-07-03T13:56:30;31.20;1.00
21918;DHT22;11123;49.882;8.662;2022-07-03T13:58:59;31.40;1.00
21918;DHT22;11123;49.882;8.662;2022-07-03T14:01:28;31.60;1.00
21918;DHT22;11123;49.882;8.662;2022-07-03T14:03:57;31.30;1.00
21918;DHT22;11123;49.882;8.662;2022-07-03T14:06:28;31.20;1.00
21918;DHT22;11123;49.882;8.662;2022-07-03T14:08:56;31.40;1.00
21918;DHT22;11123;49.882;8.662;2022-07-03T14:11:25;31.60;1.00
21918;DHT22;11123;49.882;8.662;2022-07-03T14:13:54;31.30;1.00
21918;DHT22;11123;49.882;8.662;2022-07-03T14:16:23;30.70;1.00
21918;DHT22;11123;49.882;8.662;2022-07-03T14:18:51;30.30;1.00
21918;DHT22;11123;49.882;8.662;2022-07-03T14:21:20;30.60;1.00
21918;DHT22;11123;49.882;8.662;2022-07-03T14:23:49;31.40;1.00
21918;DHT22;11123;49.882;8.662;2022-07-03T14:26:18;31.90;1.00
21918;DHT22;11123;49.882;8.662;2022-07-03T14:29:07;31.90;1.00
21918;DHT22;11123;49.882;8.662;2022-07-03T14:31:52;30.90;1.00
21918;DHT22;11123;49.882;8.662;2022-07-03T14:34:37;30.60;1.00
21918;DHT22;11123;49.882;8.662;2022-07-03T14:37:07;31.10;1.00
21918;DHT22;11123;49.882;8.662;2022-07-03T14:39:36;31.50;1.00
21918;DHT22;11123;49.882;8.662;2022-07-03T14:42:05;31.70;1.00
21918;DHT22;11123;49.882;8.662;2022-07-03T14:44:34;32.10;1.00
21918;DHT22;11123;49.882;8.662;2022-07-03T14:47:03;32.40;1.00
21918;DHT22;11123;49.882;8.662;2022-07-03T14:49:31;31.20;1.00
21918;DHT22;11123;49.882;8.662;2022-07-03T14:52:00;31.60;1.00
21918;DHT22;11123;49.882;8.662;2022-07-03T14:54:29;31.90;1.00
21918;DHT22;11123;49.882;8.662;2022-07-03T14:56:59;30.80;1.00
21918;DHT22;11123;49.882;8.662;2022-07-03T14:59:34;30.00;1.00
21918;DHT22;11123;49.882;8.662;2022-07-03T15:02:18;29.60;1.00
21918;DHT22;11123;49.882;8.662;2022-07-03T15:05:02;30.00;1.00
21918;DHT22;11123;49.882;8.662;2022-07-03T15:07:37;31.50;1.00
21918;DHT22;11123;49.882;8.662;2022-07-03T15:10:08;33.00;1.00
21918;DHT22;11123;49.882;8.662;2022-07-03T15:12:41;33.20;1.00
21918;DHT22;11123;49.882;8.662;2022-07-03T15:15:11;32.40;1.00
21918;DHT22;11123;49.882;8.662;2022-07-03T15:17:41;31.00;1.00
21918;DHT22;11123;49.882;8.662;2022-07-03T15:20:13;31.10;1.00
21918;DHT22;11123;49.882;8.662;2022-07-03T15:22:43;32.60;1.00
21918;DHT22;11123;49.882;8.662;2022-07-03T15:28:14;35.40;1.00
21918;DHT22;11123;49.882;8.662;2022-07-03T15:30:46;33.00;99.90
21918;DHT22;11123;49.882;8.662;2022-07-03T15:33:15;30.70;99.90
21918;DHT22;11123;49.882;8.662;2022-07-03T15:35:49;30.90;1.00
21918;DHT22;11123;49.882;8.662;2022-07-03T15:38:24;31.00;1.00
21918;DHT22;11123;49.882;8.662;2022-07-03T15:40:59;31.00;1.00
21918;DHT22;11123;49.882;8.662;2022-07-03T15:43:47;31.40;1.00
21918;DHT22;11123;49.882;8.662;2022-07-03T15:46:34;30.90;1.00
21918;DHT22;11123;49.882;8.662;2022-07-03T15:49:26;31.10;1.00
21918;DHT22;11123;49.882;8.662;2022-07-03T15:52:03;31.10;1.00
21918;DHT22;11123;49.882;8.662;2022-07-03T15:54:44;31.50;1.00
21918;DHT22;11123;49.882;8.662;2022-07-03T15:57:24;31.00;1.00
21918;DHT22;11123;49.882;8.662;2022-07-03T15:59:58;30.50;1.00
21918;DHT22;11123;49.882;8.662;2022-07-03T16:02:39;30.60;1.00
21918;DHT22;11123;49.882;8.662;2022-07-03T16:05:11;30.90;1.00
21918;DHT22;11123;49.882;8.662;2022-07-03T16:07:40;31.40;1.00
21918;DHT22;11123;49.882;8.662;2022-07-03T16:10:11;31.60;1.00
21918;DHT22;11123;49.882;8.662;2022-07-03T16:12:41;31.70;1.00
21918;DHT22;11123;49.882;8.662;2022-07-03T16:15:12;31.80;1.00
21918;DHT22;11123;49.882;8.662;2022-07-03T16:17:40;31.40;1.00
21918;DHT22;11123;49.882;8.662;2022-07-03T16:20:09;31.30;1.00
21918;DHT22;11123;49.882;8.662;2022-07-03T16:22:38;31.10;1.00
21918;DHT22;11123;49.882;8.662;2022-07-03T16:25:07;30.70;1.00
21918;DHT22;11123;49.882;8.662;2022-07-03T16:27:36;30.50;1.00